createdAt,value
2022-08-05T00:01:28.958Z,952
2022-08-05T00:02:52.309Z,952
2022-08-05T00:03:57.762Z,952
2022-08-05T00:04:59.539Z,952
2022-08-05T00:06:35.826Z,952
2022-08-05T00:08:01.917Z,952
2022-08-05T00:09:19.822Z,952
2022-08-05T00:10:27.543Z,951.9
2022-08-05T00:11:55.940Z,952
2022-08-05T00:13:03.327Z,951.9
2022-08-05T00:14:17.632Z,951.9
2022-08-05T00:16:00.636Z,952
2022-08-05T00:17:03.512Z,951.9
2022-08-05T00:18:22.963Z,951.9
2022-08-05T00:20:03.108Z,951.9
2022-08-05T00:21:08.769Z,951.9
2022-08-05T00:22:12.149Z,951.9
2022-08-05T00:23:13.967Z,951.9
2022-08-05T00:24:30.644Z,951.9
2022-08-05T00:25:46.582Z,951.8
2022-08-05T00:26:53.467Z,951.8
2022-08-05T00:27:55.705Z,951.9
2022-08-05T00:28:58.482Z,951.9
2022-08-05T00:30:03.714Z,951.8
2022-08-05T00:31:08.014Z,951.8
2022-08-05T00:32:16.117Z,951.8
2022-08-05T00:35:07.969Z,951.8
2022-08-05T00:37:14.516Z,951.9
2022-08-05T00:38:34.169Z,951.9
2022-08-05T00:39:59.218Z,951.9
2022-08-05T00:41:01.639Z,951.9
2022-08-05T00:42:03.445Z,952
2022-08-05T00:43:07.998Z,952
2022-08-05T00:44:12.201Z,951.9
2022-08-05T00:45:14.050Z,951.9
2022-08-05T00:46:16.407Z,951.9
2022-08-05T00:48:06.304Z,951.9
2022-08-05T00:49:14.899Z,951.9
2022-08-05T00:50:25.751Z,951.9
2022-08-05T00:51:53.322Z,951.9
2022-08-05T00:52:56.185Z,951.9
2022-08-05T00:54:03.560Z,951.9
2022-08-05T00:55:06.741Z,951.9
2022-08-05T00:56:08.701Z,951.9
2022-08-05T00:57:10.544Z,951.9
2022-08-05T00:58:13.416Z,951.9
2022-08-05T00:59:15.266Z,951.9
2022-08-05T01:00:20.188Z,951.9
2022-08-05T01:01:49.648Z,951.9
2022-08-05T01:02:53.594Z,951.9
2022-08-05T01:03:55.442Z,951.9
2022-08-05T01:04:57.284Z,951.9
2022-08-05T01:05:59.137Z,951.9
2022-08-05T01:07:05.605Z,951.9
2022-08-05T01:08:47.192Z,951.9
2022-08-05T01:09:56.195Z,951.9
2022-08-05T01:10:58.426Z,951.9
2022-08-05T01:12:19.351Z,951.9
2022-08-05T01:13:59.564Z,951.9
2022-08-05T01:15:05.514Z,952
2022-08-05T01:16:37.094Z,951.9
2022-08-05T01:17:44.370Z,951.9
2022-08-05T01:18:56.828Z,951.9
2022-08-05T01:20:03.973Z,951.9
2022-08-05T01:21:06.506Z,951.9
2022-08-05T01:22:27.719Z,951.9
2022-08-05T01:23:35.510Z,951.9
2022-08-05T01:24:38.169Z,951.9
2022-08-05T01:25:42.069Z,951.9
2022-08-05T01:26:55.694Z,951.9
2022-08-05T01:27:57.550Z,951.9
2022-08-05T01:29:05.843Z,951.9
2022-08-05T01:30:35.237Z,951.9
2022-08-05T01:31:45.587Z,952
2022-08-05T01:32:48.571Z,951.9
2022-08-05T01:33:55.535Z,951.9
2022-08-05T01:34:58.615Z,952
2022-08-05T01:36:02.205Z,951.9
2022-08-05T01:37:04.875Z,951.9
2022-08-05T01:38:06.724Z,952
2022-08-05T01:39:09.129Z,951.9
2022-08-05T01:40:11.156Z,952
2022-08-05T01:41:14.850Z,951.9
2022-08-05T01:42:17.226Z,952
2022-08-05T01:43:24.474Z,952
2022-08-05T01:44:35.848Z,952
2022-08-05T01:45:43.534Z,952
2022-08-05T01:46:58.595Z,952
2022-08-05T01:48:00.749Z,952
2022-08-05T01:49:25.078Z,951.9
2022-08-05T01:50:30.152Z,952
2022-08-05T01:51:32.003Z,952
2022-08-05T01:52:34.877Z,952
2022-08-05T01:53:59.138Z,952
2022-08-05T01:55:06.539Z,952
2022-08-05T01:56:10.022Z,952
2022-08-05T01:58:47.652Z,951.9
2022-08-05T01:59:49.899Z,951.9
2022-08-05T02:00:51.731Z,952
2022-08-05T02:01:55.870Z,951.9
2022-08-05T02:03:04.132Z,952
2022-08-05T02:04:05.883Z,952
2022-08-05T02:05:12.564Z,951.9
2022-08-05T02:06:39.323Z,952
2022-08-05T02:07:41.045Z,952
2022-08-05T02:08:59.556Z,952
2022-08-05T02:10:02.220Z,952
2022-08-05T02:11:03.994Z,952
2022-08-05T02:12:05.497Z,952
2022-08-05T02:13:17.582Z,952
2022-08-05T02:14:19.227Z,952
2022-08-05T02:15:21.116Z,952
2022-08-05T02:16:22.867Z,952
2022-08-05T02:18:35.601Z,952
2022-08-05T02:19:47.981Z,951.9
2022-08-05T02:20:49.673Z,951.9
2022-08-05T02:21:52.290Z,951.9
2022-08-05T02:22:55.679Z,951.9
2022-08-05T02:23:57.289Z,951.9
2022-08-05T02:25:00.587Z,951.9
2022-08-05T02:26:02.252Z,951.9
2022-08-05T02:27:10.849Z,951.9
2022-08-05T02:28:32.046Z,951.9
2022-08-05T02:30:01.351Z,951.9
2022-08-05T02:31:04.595Z,951.9
2022-08-05T02:32:08.893Z,951.9
2022-08-05T02:33:36.347Z,951.9
2022-08-05T02:34:41.299Z,951.9
2022-08-05T02:36:01.501Z,951.9
2022-08-05T02:37:04.784Z,951.9
2022-08-05T02:38:13.397Z,951.9
2022-08-05T02:39:22.123Z,951.8
2022-08-05T02:40:27.835Z,951.8
2022-08-05T02:42:01.714Z,951.9
2022-08-05T02:43:07.632Z,951.9
2022-08-05T02:44:13.934Z,951.8
2022-08-05T02:45:16.609Z,951.9
2022-08-05T02:46:29.168Z,951.9
2022-08-05T02:48:13.005Z,951.9
2022-08-05T02:49:15.275Z,951.9
2022-08-05T02:50:18.500Z,951.9
2022-08-05T02:52:04.697Z,951.9
2022-08-05T02:53:19.649Z,951.8
2022-08-05T02:54:37.855Z,951.9
2022-08-05T02:56:02.438Z,951.9
2022-08-05T02:58:13.126Z,951.9
2022-08-05T02:59:15.178Z,951.9
2022-08-05T03:00:17.021Z,951.9
2022-08-05T03:01:20.046Z,951.9
2022-08-05T03:02:21.792Z,951.9
2022-08-05T03:03:24.072Z,951.8
2022-08-05T03:04:26.482Z,951.9
2022-08-05T03:07:00.464Z,951.8
2022-08-05T03:08:10.771Z,951.8
2022-08-05T03:09:36.591Z,951.8
2022-08-05T03:11:58.434Z,951.8
2022-08-05T03:14:04.952Z,951.8
2022-08-05T03:15:12.812Z,951.9
2022-08-05T03:16:19.785Z,951.9
2022-08-05T03:17:25.524Z,951.9
2022-08-05T03:18:30.969Z,951.9
2022-08-05T03:19:36.486Z,951.9
2022-08-05T03:20:50.521Z,951.9
2022-08-05T03:21:52.915Z,951.9
2022-08-05T03:22:58.327Z,951.9
2022-08-05T03:24:02.748Z,951.9
2022-08-05T03:26:31.151Z,951.9
2022-08-05T03:28:00.828Z,951.9
2022-08-05T03:29:04.005Z,951.9
2022-08-05T03:30:09.442Z,951.9
2022-08-05T03:32:00.234Z,951.9
2022-08-05T03:33:03.300Z,951.9
2022-08-05T03:34:04.907Z,951.9
2022-08-05T03:35:09.358Z,951.9
2022-08-05T03:36:12.539Z,951.9
2022-08-05T03:37:14.626Z,951.9
2022-08-05T03:38:16.258Z,951.9
2022-08-05T03:40:00.827Z,951.9
2022-08-05T03:41:11.240Z,951.9
2022-08-05T03:42:16.267Z,951.9
2022-08-05T03:44:12.113Z,951.9
2022-08-05T03:45:23.973Z,951.9
2022-08-05T03:46:32.879Z,951.9
2022-08-05T03:47:42.083Z,951.9
2022-08-05T03:48:47.028Z,951.9
2022-08-05T03:49:52.773Z,951.9
2022-08-05T03:50:54.641Z,952
2022-08-05T03:56:06.341Z,952
2022-08-05T03:57:45.123Z,952
2022-08-05T03:58:51.510Z,952
2022-08-05T03:59:55.919Z,952
2022-08-05T04:01:00.556Z,952
2022-08-05T04:02:06.265Z,952
2022-08-05T04:03:29.274Z,952
2022-08-05T04:04:31.078Z,952
2022-08-05T04:05:35.080Z,952
2022-08-05T04:06:36.652Z,952
2022-08-05T04:07:59.240Z,952
2022-08-05T04:09:00.848Z,952
2022-08-05T04:10:03.660Z,951.9
2022-08-05T04:11:05.303Z,951.9
2022-08-05T04:12:25.278Z,952
2022-08-05T04:13:53.761Z,952
2022-08-05T04:14:58.793Z,952
2022-08-05T04:16:05.237Z,952
2022-08-05T04:17:06.883Z,952
2022-08-05T04:18:22.592Z,951.9
2022-08-05T04:19:27.876Z,951.9
2022-08-05T04:20:31.988Z,951.9
2022-08-05T04:22:12.563Z,952
2022-08-05T04:24:19.014Z,952
2022-08-05T04:26:01.355Z,951.9
2022-08-05T04:27:07.889Z,951.9
2022-08-05T04:28:13.477Z,951.9
2022-08-05T04:29:16.454Z,951.9
2022-08-05T04:30:18.350Z,951.9
2022-08-05T04:31:20.096Z,951.9
2022-08-05T04:32:36.596Z,951.9
2022-08-05T04:34:38.616Z,951.9
2022-08-05T04:36:49.922Z,952
2022-08-05T04:38:07.086Z,951.9
2022-08-05T04:39:09.237Z,951.9
2022-08-05T04:40:19.995Z,951.9
2022-08-05T04:41:39.092Z,951.9
2022-08-05T04:42:46.528Z,951.9
2022-08-05T04:43:53.257Z,952
2022-08-05T04:44:54.886Z,952
2022-08-05T04:45:56.748Z,951.9
2022-08-05T04:47:11.469Z,951.9
2022-08-05T04:48:28.714Z,951.9
2022-08-05T04:50:11.805Z,951.9
2022-08-05T04:51:13.975Z,951.9
2022-08-05T04:52:15.637Z,952
2022-08-05T04:53:17.283Z,952
2022-08-05T04:54:18.814Z,952
2022-08-05T04:56:36.929Z,951.9
2022-08-05T04:57:54.471Z,951.9
2022-08-05T04:58:56.721Z,951.9
2022-08-05T04:59:59.193Z,951.9
2022-08-05T05:01:01.445Z,951.9
2022-08-05T05:02:43.568Z,951.9
2022-08-05T05:03:45.476Z,951.9
2022-08-05T05:04:51.719Z,951.9
2022-08-05T05:06:52.063Z,951.9
2022-08-05T05:08:02.752Z,951.9
2022-08-05T05:09:06.952Z,951.9
2022-08-05T05:10:08.484Z,951.9
2022-08-05T05:11:16.362Z,951.9
2022-08-05T05:12:18.097Z,951.9
2022-08-05T05:13:21.405Z,951.9
2022-08-05T05:14:32.558Z,951.9
2022-08-05T05:16:07.327Z,951.9
2022-08-05T05:17:09.967Z,951.8
2022-08-05T05:18:11.816Z,951.8
2022-08-05T05:19:39.724Z,951.9
2022-08-05T05:20:50.942Z,951.9
2022-08-05T05:21:55.979Z,951.8
2022-08-05T05:22:58.183Z,951.8
2022-08-05T05:24:09.588Z,951.8
2022-08-05T05:25:17.787Z,951.8
2022-08-05T05:26:19.446Z,951.8
2022-08-05T05:27:55.910Z,951.8
2022-08-05T05:28:57.833Z,951.8
2022-08-05T05:30:06.038Z,951.8
2022-08-05T05:32:35.701Z,951.8
2022-08-05T05:34:03.045Z,951.8
2022-08-05T05:35:06.387Z,951.8
2022-08-05T05:36:14.772Z,951.8
2022-08-05T05:37:18.383Z,951.8
2022-08-05T05:38:28.111Z,951.8
2022-08-05T05:39:36.486Z,951.8
2022-08-05T05:40:51.539Z,951.8
2022-08-05T05:41:56.909Z,951.8
2022-08-05T05:42:59.068Z,951.9
2022-08-05T05:44:01.215Z,951.9
2022-08-05T05:45:03.385Z,951.9
2022-08-05T05:46:15.621Z,951.9
2022-08-05T05:48:08.711Z,951.9
2022-08-05T05:49:23.683Z,951.9
2022-08-05T05:50:26.164Z,951.8
2022-08-05T05:51:28.509Z,951.9
2022-08-05T05:52:40.804Z,951.9
2022-08-05T05:54:00.247Z,951.9
2022-08-05T05:55:13.914Z,951.9
2022-08-05T05:56:34.669Z,951.9
2022-08-05T05:57:53.445Z,951.9
2022-08-05T05:58:55.997Z,951.9
2022-08-05T05:59:57.668Z,951.9
2022-08-05T06:01:15.531Z,951.9
2022-08-05T06:02:37.874Z,951.9
2022-08-05T06:04:04.024Z,951.9
2022-08-05T06:05:17.534Z,951.9
2022-08-05T06:06:22.808Z,951.9
2022-08-05T06:08:01.514Z,951.9
2022-08-05T06:09:07.966Z,951.9
2022-08-05T06:10:11.035Z,951.9
2022-08-05T06:11:14.054Z,951.9
2022-08-05T06:12:15.981Z,951.9
2022-08-05T06:13:25.185Z,951.9
2022-08-05T06:14:29.387Z,951.9
2022-08-05T06:16:37.510Z,951.9
2022-08-05T06:17:55.085Z,951.9
2022-08-05T06:19:02.290Z,951.9
2022-08-05T06:20:22.048Z,952
2022-08-05T06:21:38.311Z,952
2022-08-05T06:22:51.375Z,952
2022-08-05T06:23:53.617Z,952
2022-08-05T06:24:55.985Z,952
2022-08-05T06:26:25.229Z,952
2022-08-05T06:28:21.959Z,952
2022-08-05T06:30:16.691Z,952
2022-08-05T06:31:32.468Z,952
2022-08-05T06:32:35.671Z,951.9
2022-08-05T06:34:09.454Z,952
2022-08-05T06:36:10.392Z,952
2022-08-05T06:37:12.741Z,951.9
2022-08-05T06:38:16.351Z,952
2022-08-05T06:39:27.933Z,951.9
2022-08-05T06:40:33.489Z,951.9
2022-08-05T06:41:41.543Z,951.9
2022-08-05T06:42:46.590Z,951.9
2022-08-05T06:44:01.025Z,951.9
2022-08-05T06:45:09.728Z,951.9
2022-08-05T06:48:12.295Z,951.9
2022-08-05T06:50:05.875Z,951.9
2022-08-05T06:51:29.659Z,951.9
2022-08-05T06:52:40.702Z,951.9
2022-08-05T06:53:54.017Z,951.9
2022-08-05T06:54:55.646Z,951.9
2022-08-05T06:55:57.172Z,951.9
2022-08-05T06:58:36.656Z,951.9
2022-08-05T06:59:58.227Z,951.9
2022-08-05T07:01:00.588Z,951.9
2022-08-05T07:02:02.615Z,951.9
2022-08-05T07:03:10.159Z,951.8
2022-08-05T07:04:14.464Z,951.8
2022-08-05T07:05:41.457Z,951.8
2022-08-05T07:06:43.043Z,951.8
2022-08-05T07:07:47.675Z,951.8
2022-08-05T07:08:55.457Z,951.8
2022-08-05T07:09:58.838Z,951.8
2022-08-05T07:11:04.747Z,951.8
2022-08-05T07:12:08.379Z,951.8
2022-08-05T07:13:10.432Z,951.8
2022-08-05T07:14:32.325Z,951.8
2022-08-05T07:16:04.966Z,951.8
2022-08-05T07:18:12.633Z,951.8
2022-08-05T07:20:33.229Z,951.8
2022-08-05T07:22:02.839Z,951.8
2022-08-05T07:23:04.997Z,951.9
2022-08-05T07:24:11.839Z,951.8
2022-08-05T07:25:57.227Z,951.8
2022-08-05T07:27:03.046Z,951.9
2022-08-05T07:28:17.801Z,951.8
2022-08-05T07:30:32.314Z,951.8
2022-08-05T07:31:55.619Z,951.8
2022-08-05T07:32:57.758Z,951.8
2022-08-05T07:34:00.260Z,951.8
2022-08-05T07:36:21.904Z,951.8
2022-08-05T07:37:39.674Z,951.8
2022-08-05T07:38:55.114Z,951.7
2022-08-05T07:40:33.431Z,951.8
2022-08-05T07:42:16.510Z,951.8
2022-08-05T07:43:37.786Z,951.8
2022-08-05T07:44:40.030Z,951.7
2022-08-05T07:45:59.001Z,951.8
2022-08-05T07:47:08.038Z,951.8
2022-08-05T07:49:06.307Z,951.8
2022-08-05T07:50:09.541Z,951.7
2022-08-05T07:51:55.141Z,951.8
2022-08-05T07:52:57.319Z,951.7
2022-08-05T07:54:02.237Z,951.7
2022-08-05T07:56:39.667Z,951.7
2022-08-05T07:58:59.792Z,951.7
2022-08-05T08:00:01.555Z,951.8
2022-08-05T08:01:12.667Z,951.8
2022-08-05T08:02:18.663Z,951.8
2022-08-05T08:03:21.957Z,951.8
2022-08-05T08:04:38.628Z,951.8
2022-08-05T08:05:50.033Z,951.8
2022-08-05T08:06:51.859Z,951.8
2022-08-05T08:08:00.974Z,951.8
2022-08-05T08:09:05.795Z,951.7
2022-08-05T08:10:08.667Z,951.7
2022-08-05T08:11:16.383Z,951.7
2022-08-05T08:12:50.118Z,951.7
2022-08-05T08:14:01.532Z,951.7
2022-08-05T08:15:04.762Z,951.7
2022-08-05T08:16:53.777Z,951.7
2022-08-05T08:18:08.226Z,951.7
2022-08-05T08:21:03.729Z,951.7
2022-08-05T08:22:16.740Z,951.7
2022-08-05T08:24:07.608Z,951.7
2022-08-05T08:25:59.661Z,951.7
2022-08-05T08:27:08.374Z,951.7
2022-08-05T08:28:55.349Z,951.7
2022-08-05T08:30:50.396Z,951.6
2022-08-05T08:31:52.591Z,951.7
2022-08-05T08:32:54.790Z,951.7
2022-08-05T08:33:58.012Z,951.6
2022-08-05T08:34:59.723Z,951.6
2022-08-05T08:36:55.781Z,951.7
2022-08-05T08:38:07.018Z,951.6
2022-08-05T08:39:16.711Z,951.6
2022-08-05T08:40:22.630Z,951.6
2022-08-05T08:42:02.542Z,951.6
2022-08-05T08:45:27.313Z,951.6
2022-08-05T08:46:32.901Z,951.6
2022-08-05T08:49:08.179Z,951.6
2022-08-05T08:52:14.144Z,951.6
2022-08-05T08:53:29.151Z,951.6
2022-08-05T08:54:32.419Z,951.6
2022-08-05T08:56:06.837Z,951.6
2022-08-05T08:57:13.596Z,951.6
2022-08-05T08:58:15.365Z,951.5
2022-08-05T08:59:21.596Z,951.5
2022-08-05T09:00:36.264Z,951.5
2022-08-05T09:02:01.000Z,951.5
2022-08-05T09:03:02.867Z,951.5
2022-08-05T09:04:11.396Z,951.5
2022-08-05T09:06:07.291Z,951.5
2022-08-05T09:07:57.258Z,951.4
2022-08-05T09:09:01.939Z,951.4
2022-08-05T09:10:05.694Z,951.4
2022-08-05T09:11:14.206Z,951.4
2022-08-05T09:12:28.134Z,951.4
2022-08-05T09:14:55.303Z,951.3
2022-08-05T09:16:17.311Z,951.3
2022-08-05T09:17:50.097Z,951.3
2022-08-05T09:18:55.833Z,951.3
2022-08-05T09:20:05.927Z,951.2
2022-08-05T09:22:33.177Z,951.3
2022-08-05T09:23:44.182Z,951.2
2022-08-05T09:24:49.179Z,951.2
2022-08-05T09:26:06.785Z,951.2
2022-08-05T09:28:06.411Z,951.1
2022-08-05T09:29:09.378Z,951.1
2022-08-05T09:30:23.755Z,951.1
2022-08-05T09:32:47.142Z,951.1
2022-08-05T09:33:51.203Z,951
2022-08-05T09:34:55.522Z,951.1
2022-08-05T09:35:57.102Z,951.1
2022-08-05T09:37:00.350Z,951.1
2022-08-05T09:38:29.729Z,951.1
2022-08-05T09:39:56.209Z,951.1
2022-08-05T09:40:59.482Z,951
2022-08-05T09:42:03.562Z,951
2022-08-05T09:43:09.502Z,951
2022-08-05T09:44:11.591Z,951
2022-08-05T09:46:12.014Z,951
2022-08-05T09:47:20.970Z,951
2022-08-05T09:48:28.591Z,951
2022-08-05T09:50:03.693Z,950.9
2022-08-05T09:51:16.119Z,951
2022-08-05T09:52:17.992Z,950.9
2022-08-05T09:54:00.346Z,950.9
2022-08-05T09:56:12.796Z,950.9
2022-08-05T09:57:23.956Z,950.9
2022-08-05T09:58:29.580Z,950.9
2022-08-05T09:59:37.571Z,950.9
2022-08-05T10:00:40.881Z,950.9
2022-08-05T10:01:46.651Z,950.9
2022-08-05T10:02:49.360Z,950.9
2022-08-05T10:04:00.657Z,950.9
2022-08-05T10:05:08.121Z,950.8
2022-08-05T10:06:16.327Z,950.9
2022-08-05T10:08:38.221Z,950.8
2022-08-05T10:09:45.944Z,950.8
2022-08-05T10:11:09.186Z,950.8
2022-08-05T10:12:34.333Z,950.8
2022-08-05T10:13:55.585Z,950.8
2022-08-05T10:14:57.260Z,950.7
2022-08-05T10:15:59.662Z,950.7
2022-08-05T10:17:01.207Z,950.7
2022-08-05T10:18:07.387Z,950.7
2022-08-05T10:19:12.012Z,950.7
2022-08-05T10:20:20.309Z,950.7
2022-08-05T10:21:23.300Z,950.7
2022-08-05T10:22:37.615Z,950.7
2022-08-05T10:24:03.202Z,950.7
2022-08-05T10:25:14.829Z,950.7
2022-08-05T10:26:17.190Z,950.7
2022-08-05T10:28:16.902Z,950.7
2022-08-05T10:32:59.862Z,950.6
2022-08-05T10:34:08.355Z,950.5
2022-08-05T10:35:10.598Z,950.5
2022-08-05T10:36:12.327Z,950.6
2022-08-05T10:37:14.705Z,950.6
2022-08-05T10:38:20.850Z,950.6
2022-08-05T10:40:18.676Z,950.6
2022-08-05T10:41:24.070Z,950.6
2022-08-05T10:42:38.081Z,950.6
2022-08-05T10:43:45.256Z,950.6
2022-08-05T10:44:46.987Z,950.5
2022-08-05T10:45:50.705Z,950.5
2022-08-05T10:47:31.186Z,950.6
2022-08-05T10:48:59.040Z,950.5
2022-08-05T10:50:37.414Z,950.5
2022-08-05T10:52:05.179Z,950.4
2022-08-05T10:53:21.320Z,950.5
2022-08-05T10:54:37.972Z,950.5
2022-08-05T10:56:26.120Z,950.5
2022-08-05T10:57:34.437Z,950.5
2022-08-05T10:58:51.000Z,950.5
2022-08-05T11:00:18.950Z,950.5
2022-08-05T11:02:05.579Z,950.4
2022-08-05T11:03:27.434Z,950.4
2022-08-05T11:04:36.544Z,950.4
2022-08-05T11:05:39.070Z,950.4
2022-08-05T11:06:40.787Z,950.3
2022-08-05T11:09:47.559Z,950.3
2022-08-05T11:11:04.533Z,950.3
2022-08-05T11:12:18.197Z,950.4
2022-08-05T11:13:20.358Z,950.3
2022-08-05T11:15:20.954Z,950.3
2022-08-05T11:16:57.996Z,950.3
2022-08-05T11:20:18.858Z,950.2
2022-08-05T11:21:24.013Z,950.2
2022-08-05T11:22:25.647Z,950.2
2022-08-05T11:24:31.115Z,950.2
2022-08-05T11:26:09.493Z,950.2
2022-08-05T11:27:12.277Z,950.2
2022-08-05T11:28:17.691Z,950.2
2022-08-05T11:29:20.481Z,950.2
2022-08-05T11:30:28.701Z,950.2
2022-08-05T11:32:01.542Z,950.2
2022-08-05T11:33:20.981Z,950.2
2022-08-05T11:34:28.691Z,950.1
2022-08-05T11:36:09.036Z,950.1
2022-08-05T11:38:51.973Z,950.1
2022-08-05T11:40:04.700Z,950.1
2022-08-05T11:42:04.630Z,950.1
2022-08-05T11:43:06.393Z,950.1
2022-08-05T11:44:11.742Z,950.1
2022-08-05T11:46:33.539Z,950
2022-08-05T11:47:50.689Z,950.1
2022-08-05T11:48:59.517Z,950.1
2022-08-05T11:50:02.184Z,950
2022-08-05T11:51:10.988Z,950
2022-08-05T11:52:58.737Z,950
2022-08-05T11:54:03.649Z,950.1
2022-08-05T11:55:10.816Z,950
2022-08-05T11:56:14.504Z,950.1
2022-08-05T11:57:27.461Z,950
2022-08-05T11:58:41.004Z,950
2022-08-05T11:59:55.093Z,950
2022-08-05T12:00:57.868Z,950
2022-08-05T12:01:59.417Z,950
2022-08-05T12:03:01.967Z,950
2022-08-05T12:04:04.166Z,950
2022-08-05T12:05:19.126Z,950
2022-08-05T12:06:20.922Z,949.9
2022-08-05T12:08:11.906Z,949.9
2022-08-05T12:09:54.120Z,949.9
2022-08-05T12:10:55.859Z,949.9
2022-08-05T12:12:02.737Z,949.9
2022-08-05T12:13:49.795Z,949.9
2022-08-05T12:14:52.517Z,949.9
2022-08-05T12:15:58.692Z,949.8
2022-08-05T12:18:02.513Z,949.8
2022-08-05T12:20:33.913Z,949.8
2022-08-05T12:21:39.685Z,949.9
2022-08-05T12:22:46.642Z,949.8
2022-08-05T12:23:53.579Z,949.8
2022-08-05T12:24:55.241Z,949.8
2022-08-05T12:25:57.820Z,949.8
2022-08-05T12:27:25.281Z,949.8
2022-08-05T12:28:37.020Z,949.8
2022-08-05T12:29:39.631Z,949.8
2022-08-05T12:30:46.549Z,949.8
2022-08-05T12:31:54.765Z,949.7
2022-08-05T12:33:36.189Z,949.8
2022-08-05T12:34:40.433Z,949.8
2022-08-05T12:35:43.466Z,949.7
2022-08-05T12:36:49.454Z,949.7
2022-08-05T12:37:55.948Z,949.7
2022-08-05T12:38:57.714Z,949.7
2022-08-05T12:40:26.649Z,949.7
2022-08-05T12:41:34.982Z,949.7
2022-08-05T12:42:49.018Z,949.6
2022-08-05T12:43:50.936Z,949.7
2022-08-05T12:44:52.551Z,949.6
2022-08-05T12:45:56.875Z,949.6
2022-08-05T12:46:58.460Z,949.6
2022-08-05T12:48:33.177Z,949.6
2022-08-05T12:50:07.284Z,949.6
2022-08-05T12:52:24.061Z,949.6
2022-08-05T12:53:38.990Z,949.6
2022-08-05T12:54:40.688Z,949.5
2022-08-05T12:55:43.495Z,949.5
2022-08-05T12:56:51.179Z,949.5
2022-08-05T12:58:59.741Z,949.5
2022-08-05T13:02:08.285Z,949.5
2022-08-05T13:03:15.382Z,949.5
2022-08-05T13:04:25.312Z,949.5
2022-08-05T13:05:37.926Z,949.5
2022-08-05T13:06:52.364Z,949.5
2022-08-05T13:08:01.812Z,949.5
2022-08-05T13:09:12.755Z,949.5
2022-08-05T13:10:29.319Z,949.5
2022-08-05T13:12:03.832Z,949.4
2022-08-05T13:13:09.191Z,949.5
2022-08-05T13:14:15.144Z,949.4
2022-08-05T13:15:51.219Z,949.4
2022-08-05T13:16:56.872Z,949.4
2022-08-05T13:18:01.384Z,949.4
2022-08-05T13:19:03.829Z,949.4
2022-08-05T13:20:08.775Z,949.3
2022-08-05T13:21:14.167Z,949.4
2022-08-05T13:22:30.321Z,949.3
2022-08-05T13:23:34.661Z,949.3
2022-08-05T13:25:08.060Z,949.3
2022-08-05T13:26:30.686Z,949.3
2022-08-05T13:27:39.765Z,949.3
2022-08-05T13:28:44.542Z,949.3
2022-08-05T13:30:39.401Z,949.3
2022-08-05T13:32:06.178Z,949.3
2022-08-05T13:33:08.642Z,949.3
2022-08-05T13:34:26.544Z,949.2
2022-08-05T13:35:52.079Z,949.3
2022-08-05T13:36:53.811Z,949.2
2022-08-05T13:37:56.261Z,949.2
2022-08-05T13:40:27.534Z,949.3
2022-08-05T13:41:51.786Z,949.2
2022-08-05T13:42:56.080Z,949.2
2022-08-05T13:43:57.658Z,949.2
2022-08-05T13:44:59.408Z,949.2
2022-08-05T13:46:01.254Z,949.3
2022-08-05T13:47:09.536Z,949.2
2022-08-05T13:49:01.279Z,949.2
2022-08-05T13:50:17.021Z,949.2
2022-08-05T13:51:20.023Z,949.2
2022-08-05T13:52:35.407Z,949.2
2022-08-05T13:53:48.785Z,949.2
2022-08-05T13:54:53.918Z,949.1
2022-08-05T13:56:02.469Z,949.1
2022-08-05T13:57:06.729Z,949.2
2022-08-05T13:58:11.365Z,949.1
2022-08-05T13:59:25.520Z,949.1
2022-08-05T14:00:34.501Z,949.1
2022-08-05T14:02:00.228Z,949.1
2022-08-05T14:03:03.416Z,949.1
2022-08-05T14:04:06.254Z,949.1
2022-08-05T14:05:19.488Z,949.1
2022-08-05T14:08:27.184Z,949
2022-08-05T14:09:46.759Z,949
2022-08-05T14:10:48.706Z,949
2022-08-05T14:12:32.409Z,949.1
2022-08-05T14:13:34.867Z,949
2022-08-05T14:14:36.862Z,949
2022-08-05T14:16:16.684Z,949
2022-08-05T14:17:20.648Z,949
2022-08-05T14:18:24.482Z,949
2022-08-05T14:19:28.815Z,949
2022-08-05T14:20:30.457Z,949
2022-08-05T14:22:12.533Z,949
2022-08-05T14:23:26.354Z,949
2022-08-05T14:24:35.993Z,949
2022-08-05T14:25:53.251Z,949
2022-08-05T14:27:18.941Z,948.9
2022-08-05T14:28:28.871Z,948.9
2022-08-05T14:29:31.724Z,948.9
2022-08-05T14:30:36.235Z,949
2022-08-05T14:32:21.158Z,948.9
2022-08-05T14:34:00.974Z,948.9
2022-08-05T14:35:03.259Z,948.9
2022-08-05T14:36:05.557Z,948.9
2022-08-05T14:37:14.389Z,948.9
2022-08-05T14:38:36.437Z,948.9
2022-08-05T14:39:59.274Z,948.9
2022-08-05T14:41:01.111Z,948.9
2022-08-05T14:42:29.797Z,948.8
2022-08-05T14:44:14.487Z,948.9
2022-08-05T14:45:23.507Z,948.9
2022-08-05T14:46:30.659Z,948.8
2022-08-05T14:48:09.128Z,948.8
2022-08-05T14:50:17.650Z,948.8
2022-08-05T14:51:21.137Z,948.8
2022-08-05T14:52:59.149Z,948.8
2022-08-05T14:54:33.891Z,948.8
2022-08-05T14:55:40.509Z,948.7
2022-08-05T14:56:47.287Z,948.7
2022-08-05T14:57:56.997Z,948.8
2022-08-05T14:58:58.591Z,948.7
2022-08-05T15:00:00.131Z,948.7
2022-08-05T15:01:02.065Z,948.7
2022-08-05T15:02:16.536Z,948.7
2022-08-05T15:03:23.075Z,948.8
2022-08-05T15:04:29.506Z,948.7
2022-08-05T15:06:16.115Z,948.7
2022-08-05T15:08:58.955Z,948.7
2022-08-05T15:10:10.293Z,948.7
2022-08-05T15:11:12.897Z,948.6
2022-08-05T15:12:17.698Z,948.6
2022-08-05T15:13:50.168Z,948.6
2022-08-05T15:14:56.302Z,948.6
2022-08-05T15:15:57.946Z,948.6
2022-08-05T15:16:59.919Z,948.6
2022-08-05T15:18:06.253Z,948.6
2022-08-05T15:19:24.283Z,948.6
2022-08-05T15:20:27.674Z,948.6
2022-08-05T15:21:35.465Z,948.6
2022-08-05T15:22:37.623Z,948.6
2022-08-05T15:23:40.489Z,948.6
2022-08-05T15:24:42.244Z,948.6
2022-08-05T15:26:02.547Z,948.6
2022-08-05T15:27:09.593Z,948.5
2022-08-05T15:28:16.273Z,948.5
2022-08-05T15:29:22.095Z,948.5
2022-08-05T15:30:25.595Z,948.5
2022-08-05T15:31:35.325Z,948.5
2022-08-05T15:32:37.187Z,948.5
2022-08-05T15:34:33.753Z,948.4
2022-08-05T15:35:45.756Z,948.5
2022-08-05T15:36:47.661Z,948.5
2022-08-05T15:38:42.410Z,948.5
2022-08-05T15:41:24.581Z,948.5
2022-08-05T15:43:21.531Z,948.5
2022-08-05T15:44:25.738Z,948.4
2022-08-05T15:45:39.414Z,948.4
2022-08-05T15:46:41.486Z,948.5
2022-08-05T15:47:43.219Z,948.4
2022-08-05T15:49:09.974Z,948.5
2022-08-05T15:50:26.030Z,948.5
2022-08-05T15:52:54.885Z,948.5
2022-08-05T15:54:01.176Z,948.5
2022-08-05T15:55:16.515Z,948.5
2022-08-05T15:56:19.004Z,948.5
2022-08-05T15:57:20.775Z,948.5
2022-08-05T15:58:23.629Z,948.4
2022-08-05T15:59:25.202Z,948.5
2022-08-05T16:01:17.996Z,948.5
2022-08-05T16:02:30.152Z,948.5
2022-08-05T16:03:34.225Z,948.5
2022-08-05T16:04:35.852Z,948.5
2022-08-05T16:05:42.012Z,948.5
2022-08-05T16:06:43.719Z,948.5
2022-08-05T16:07:49.395Z,948.5
2022-08-05T16:08:58.205Z,948.5
2022-08-05T16:10:00.489Z,948.5
2022-08-05T16:11:02.279Z,948.5
2022-08-05T16:12:06.498Z,948.5
2022-08-05T16:13:08.141Z,948.5
2022-08-05T16:14:09.764Z,948.5
2022-08-05T16:15:19.152Z,948.5
2022-08-05T16:16:25.898Z,948.5
2022-08-05T16:17:32.873Z,948.5
2022-08-05T16:18:34.545Z,948.5
2022-08-05T16:20:12.533Z,948.5
2022-08-05T16:21:14.261Z,948.5
2022-08-05T16:22:16.232Z,948.5
2022-08-05T16:23:18.091Z,948.5
2022-08-05T16:24:52.357Z,948.5
2022-08-05T16:25:56.271Z,948.5
2022-08-05T16:26:58.940Z,948.5
2022-08-05T16:28:10.473Z,948.5
2022-08-05T16:29:14.948Z,948.5
2022-08-05T16:30:29.430Z,948.5
2022-08-05T16:31:58.052Z,948.5
2022-08-05T16:32:59.826Z,948.5
2022-08-05T16:34:02.673Z,948.6
2022-08-05T16:35:16.072Z,948.5
2022-08-05T16:36:29.190Z,948.6
2022-08-05T16:38:28.403Z,948.6
2022-08-05T16:40:28.577Z,948.6
2022-08-05T16:42:28.917Z,948.6
2022-08-05T16:43:32.553Z,948.6
2022-08-05T16:44:34.190Z,948.6
2022-08-05T16:46:25.064Z,948.6
2022-08-05T16:47:55.650Z,948.6
2022-08-05T16:49:05.541Z,948.6
2022-08-05T16:50:08.635Z,948.6
2022-08-05T16:51:11.417Z,948.7
2022-08-05T16:52:13.372Z,948.6
2022-08-05T16:54:03.811Z,948.6
2022-08-05T16:55:20.943Z,948.6
2022-08-05T16:56:26.388Z,948.7
2022-08-05T16:58:03.487Z,948.6
2022-08-05T16:59:15.953Z,948.7
2022-08-05T17:00:38.080Z,948.7
2022-08-05T17:01:56.653Z,948.7